createdAt,value
2022-10-26T00:04:30.078Z,58.6
2022-10-26T00:10:07.270Z,58.5
2022-10-26T00:17:11.498Z,58.4
2022-10-26T00:23:01.375Z,58.7
2022-10-26T00:28:47.324Z,58.5
2022-10-26T00:34:31.382Z,58.7
2022-10-26T00:40:06.737Z,59
2022-10-26T00:46:01.419Z,59
2022-10-26T00:51:56.904Z,59.2
2022-10-26T00:57:33.183Z,59.2
2022-10-26T01:03:09.802Z,59.2
2022-10-26T01:09:05.902Z,59.4
2022-10-26T01:14:40.603Z,59.5
2022-10-26T01:21:19.115Z,59.6
2022-10-26T01:27:00.289Z,60.2
2022-10-26T01:33:28.353Z,60.3
2022-10-26T01:39:31.845Z,60
2022-10-26T01:45:14.747Z,59.9
2022-10-26T01:50:56.895Z,60
2022-10-26T01:56:52.791Z,60.2
2022-10-26T02:02:28.002Z,60.1
2022-10-26T02:08:16.422Z,60.2
2022-10-26T02:14:09.594Z,60.9
2022-10-26T02:19:45.113Z,61.6
2022-10-26T02:25:26.800Z,61.8
2022-10-26T02:31:01.724Z,61.7
2022-10-26T02:36:46.713Z,61.9
2022-10-26T02:42:21.602Z,62.1
2022-10-26T02:47:56.749Z,62.6
2022-10-26T02:53:38.831Z,63.1
2022-10-26T02:59:37.157Z,63
2022-10-26T03:05:31.340Z,62.7
2022-10-26T03:11:08.389Z,63.1
2022-10-26T03:16:52.359Z,63.2
2022-10-26T03:22:34.344Z,63.5
2022-10-26T03:28:30.046Z,63.3
2022-10-26T03:34:05.133Z,63.3
2022-10-26T03:39:48.816Z,63.6
2022-10-26T03:45:26.435Z,63.8
2022-10-26T03:51:01.342Z,63.4
2022-10-26T03:56:55.161Z,63.2
2022-10-26T04:02:30.491Z,63.1
2022-10-26T04:08:08.435Z,63.3
2022-10-26T04:13:48.853Z,63.4
2022-10-26T04:19:44.540Z,63.5
2022-10-26T04:25:34.042Z,63.9
2022-10-26T04:31:09.079Z,64.2
2022-10-26T04:36:44.174Z,64.5
2022-10-26T04:42:43.725Z,64.2
2022-10-26T04:48:28.657Z,64
2022-10-26T04:54:24.351Z,64
2022-10-26T05:00:08.362Z,64.2
2022-10-26T05:05:43.283Z,64.7
2022-10-26T05:11:26.214Z,64.7
2022-10-26T05:17:01.364Z,65
2022-10-26T05:22:38.849Z,65.1
2022-10-26T05:28:20.518Z,65
2022-10-26T05:34:42.145Z,65.4
2022-10-26T05:40:28.778Z,65.6
2022-10-26T05:46:04.107Z,65.6
2022-10-26T05:51:38.882Z,65.8
2022-10-26T05:57:13.801Z,65.5
2022-10-26T06:02:53.829Z,65.5
2022-10-26T06:08:31.128Z,65.7
2022-10-26T06:14:34.376Z,65.8
2022-10-26T06:20:09.877Z,69.7
2022-10-26T06:25:45.083Z,71.3
2022-10-26T06:31:20.225Z,71.2
2022-10-26T06:37:04.988Z,71.9
2022-10-26T06:42:47.534Z,72
2022-10-26T06:48:23.335Z,69.8
2022-10-26T06:54:44.570Z,71.3
2022-10-26T07:00:20.526Z,72.8
2022-10-26T07:06:08.570Z,66.9
2022-10-26T07:11:53.398Z,69.2
2022-10-26T07:17:42.748Z,70.7
2022-10-26T07:29:17.594Z,66.2
2022-10-26T07:34:57.562Z,67.7
2022-10-26T07:40:43.912Z,64.1
2022-10-26T07:46:23.485Z,65.3
2022-10-26T07:51:58.315Z,64.4
2022-10-26T07:57:39.525Z,63.4
2022-10-26T08:03:29.817Z,62.2
2022-10-26T08:09:35.562Z,62.1
2022-10-26T08:15:14.572Z,59.3
2022-10-26T08:21:13.443Z,59.4
2022-10-26T08:27:36.130Z,62.2
2022-10-26T08:33:16.650Z,58.6
2022-10-26T08:38:51.527Z,58.4
2022-10-26T08:44:29.873Z,57.5
2022-10-26T08:50:05.712Z,62.6
2022-10-26T08:55:47.745Z,65.8
2022-10-26T09:01:23.170Z,61.3
2022-10-26T09:07:00.724Z,63.2
2022-10-26T09:12:36.942Z,61
2022-10-26T09:18:28.550Z,55.7
2022-10-26T09:24:03.775Z,60.3
2022-10-26T09:29:55.471Z,57.7
2022-10-26T09:35:38.895Z,59.7
2022-10-26T09:41:13.741Z,63.3
2022-10-26T09:46:54.851Z,60.8
2022-10-26T09:52:37.917Z,61.4
2022-10-26T09:58:25.488Z,61
2022-10-26T10:04:10.374Z,61.2
2022-10-26T10:10:02.329Z,61
2022-10-26T10:15:44.316Z,58.9
2022-10-26T10:21:23.698Z,56
2022-10-26T10:27:09.322Z,55.8
2022-10-26T10:32:46.885Z,57.3
2022-10-26T10:38:28.596Z,57
2022-10-26T10:45:23.409Z,56.6
2022-10-26T10:50:59.701Z,55.1
2022-10-26T10:56:52.831Z,56.7
2022-10-26T11:02:30.703Z,55.4
2022-10-26T11:08:06.673Z,55.5
2022-10-26T11:13:49.531Z,53.4
2022-10-26T11:19:33.236Z,53.5
2022-10-26T11:25:14.471Z,53.9
2022-10-26T11:30:51.517Z,51.6
2022-10-26T11:36:26.689Z,50.9
2022-10-26T11:42:02.585Z,51.7
2022-10-26T11:47:38.037Z,51.3
2022-10-26T11:53:38.953Z,52.3
2022-10-26T11:59:14.711Z,51.1
2022-10-26T12:04:52.924Z,51
2022-10-26T12:10:28.120Z,52.5
2022-10-26T12:16:05.165Z,50.6
2022-10-26T12:21:49.170Z,49.4
2022-10-26T12:27:37.088Z,47.6
2022-10-26T12:33:12.785Z,47.6
2022-10-26T12:38:48.264Z,49.1
2022-10-26T12:44:35.463Z,44.6
2022-10-26T12:50:32.016Z,45.8
2022-10-26T12:56:11.558Z,47.3
2022-10-26T13:01:47.469Z,48.3
2022-10-26T13:07:38.782Z,48.4
2022-10-26T13:13:14.454Z,47.1
2022-10-26T13:18:49.626Z,45.1
2022-10-26T13:24:33.215Z,42.8
2022-10-26T13:30:10.401Z,40.4
2022-10-26T13:35:52.930Z,43.2
2022-10-26T13:41:31.856Z,46.2
2022-10-26T13:47:20.105Z,47.9
2022-10-26T13:53:02.817Z,48.7
2022-10-26T13:58:43.292Z,49.2
2022-10-26T14:04:20.977Z,49.3
2022-10-26T14:09:56.025Z,50
2022-10-26T14:15:53.245Z,50.4
2022-10-26T14:21:32.853Z,51.2
2022-10-26T14:27:38.767Z,52.3
2022-10-26T14:33:29.979Z,52.3
2022-10-26T14:39:17.285Z,52.5
2022-10-26T14:45:49.446Z,52.1
2022-10-26T14:51:27.359Z,52.2
2022-10-26T14:57:07.978Z,52.4
2022-10-26T15:02:43.760Z,52.5
2022-10-26T15:08:45.086Z,52.5
2022-10-26T15:14:51.186Z,52.6
2022-10-26T15:20:26.254Z,53.2
2022-10-26T15:26:07.913Z,53.9
2022-10-26T15:31:42.843Z,54.8
2022-10-26T15:37:18.090Z,55.3
2022-10-26T15:43:04.098Z,55.7
2022-10-26T15:54:31.678Z,55.7
2022-10-26T16:00:22.581Z,55.7
2022-10-26T16:06:33.706Z,55.8
2022-10-26T16:12:18.541Z,56
2022-10-26T16:18:32.300Z,56.1
2022-10-26T16:24:09.518Z,56.3
2022-10-26T16:29:44.482Z,56.4
2022-10-26T16:35:24.978Z,56.5
2022-10-26T16:42:33.253Z,58.3
2022-10-26T16:48:08.640Z,58.3
2022-10-26T16:54:04.754Z,60.7
2022-10-26T16:59:50.363Z,62.6
2022-10-26T17:05:25.829Z,64.5
2022-10-26T17:12:12.062Z,65.7
2022-10-26T17:17:57.829Z,64
2022-10-26T17:23:52.738Z,62.5
2022-10-26T17:29:40.170Z,62.5
2022-10-26T17:35:18.564Z,62
2022-10-26T17:41:02.539Z,62.2
2022-10-26T17:46:39.903Z,62.3
2022-10-26T17:52:14.915Z,62.4
2022-10-26T17:58:02.143Z,62.6
2022-10-26T18:03:50.162Z,62.9
2022-10-26T18:10:33.068Z,62.8
2022-10-26T18:16:36.401Z,62.7
2022-10-26T18:22:36.023Z,63
2022-10-26T18:30:03.114Z,63.4
2022-10-26T18:35:41.254Z,63.8
2022-10-26T18:41:45.281Z,64.4
2022-10-26T18:47:20.608Z,64.8
2022-10-26T18:52:56.356Z,65.1
2022-10-26T18:58:38.646Z,65
2022-10-26T19:04:20.165Z,65
2022-10-26T19:09:58.383Z,64.9
2022-10-26T19:15:58.469Z,65
2022-10-26T19:21:51.474Z,65.3
2022-10-26T19:27:28.422Z,65.7
2022-10-26T19:33:09.801Z,66.1
2022-10-26T19:38:46.541Z,66.3
2022-10-26T19:44:36.398Z,66.7
2022-10-26T19:50:11.349Z,66.8
2022-10-26T19:55:47.197Z,66.9
2022-10-26T20:01:40.477Z,67.3
2022-10-26T20:07:16.495Z,67.3
2022-10-26T20:13:04.010Z,67.4
2022-10-26T20:18:45.947Z,67.6
2022-10-26T20:24:26.415Z,67.9
2022-10-26T20:30:01.362Z,67.9
2022-10-26T20:35:53.944Z,67.6
2022-10-26T20:42:00.730Z,67.3
2022-10-26T20:47:33.486Z,67.2
2022-10-26T20:53:08.709Z,67.3
2022-10-26T20:58:49.475Z,67.3
2022-10-26T21:04:39.927Z,67.5
2022-10-26T21:10:28.654Z,67.7
2022-10-26T21:16:14.838Z,68.3
2022-10-26T21:21:50.334Z,68.5
2022-10-26T21:27:28.097Z,68.7
2022-10-26T21:33:08.669Z,69.3
2022-10-26T21:38:43.847Z,69.1
2022-10-26T21:44:42.093Z,69
2022-10-26T21:50:28.543Z,68.7
2022-10-26T21:56:04.490Z,68.3
2022-10-26T22:01:46.162Z,68.3
2022-10-26T22:07:22.781Z,68.3
2022-10-26T22:13:20.812Z,67.8
2022-10-26T22:19:05.764Z,67.4
2022-10-26T22:24:40.499Z,66.9
2022-10-26T22:30:15.394Z,66.1
2022-10-26T22:35:50.084Z,65.6
2022-10-26T22:41:50.997Z,65.4
2022-10-26T22:47:23.614Z,65.6
2022-10-26T22:53:11.399Z,65.2
2022-10-26T22:58:51.317Z,63.9
2022-10-26T23:04:33.855Z,63.5
2022-10-26T23:10:13.627Z,62.5
2022-10-26T23:15:58.022Z,61.4
2022-10-26T23:21:41.009Z,60.6
2022-10-26T23:27:22.310Z,59.5
2022-10-26T23:33:03.966Z,58.6
2022-10-26T23:38:47.995Z,57.3
2022-10-26T23:44:23.148Z,57.1
2022-10-26T23:50:18.866Z,55.7
2022-10-26T23:55:59.539Z,55
